Time;durP1;ratioP1;P1;durP2;ratioP2;P2;SDS_P1;SDS_P2;PMS_P1;PMS_P2;Temp;Humidity;BMP_temperature;BMP_pressure;BME280_temperature;BME280_humidity;BME280_pressure;Samples;Min_cycle;Max_cycle;Signal;HPM_P1;HPM_P2
2023/02/05 00:01:56;;;;;;;14.60;8.52;;;;;;;11.52;64.04;100438.38;5091749;28;20024;-48
2023/02/05 00:04:22;;;;;;;13.23;8.82;;;;;;;11.25;65.01;100440.34;5090345;28;20035;-48
2023/02/05 00:06:48;;;;;;;8.43;7.53;;;;;;;11.11;65.13;100441.78;5091623;28;20393;-48
2023/02/05 00:09:14;;;;;;;7.80;6.78;;;;;;;11.12;65.88;100442.59;5091661;28;20044;-48
2023/02/05 00:11:40;;;;;;;13.85;8.40;;;;;;;10.98;66.14;100446.66;5091810;28;20146;-48
2023/02/05 00:14:05;;;;;;;19.50;8.90;;;;;;;10.98;66.64;100431.69;5091608;28;20556;-48
2023/02/05 00:16:33;;;;;;;13.38;7.93;;;;;;;11.03;66.45;100433.88;5090286;28;20099;-48
2023/02/05 00:18:59;;;;;;;8.80;7.70;;;;;;;11.03;66.23;100438.28;5091543;28;20031;-48
2023/02/05 00:21:26;;;;;;;11.68;7.65;;;;;;;11.06;66.65;100428.28;5090175;28;20028;-48
2023/02/05 00:23:52;;;;;;;10.88;6.90;;;;;;;11.24;65.88;100438.66;5091150;28;20072;-48
2023/02/05 00:26:18;;;;;;;13.32;7.97;;;;;;;11.30;65.88;100435.41;5091490;28;20102;-48
2023/02/05 00:28:44;;;;;;;17.00;7.93;;;;;;;11.43;65.80;100431.47;5091459;28;20581;-48
2023/02/05 00:31:13;;;;;;;10.10;7.60;;;;;;;11.54;65.43;100431.16;5091386;28;20020;-48
2023/02/05 00:33:38;;;;;;;19.50;7.15;;;;;;;11.49;65.17;100439.53;5090086;28;20036;-48
2023/02/05 00:36:05;;;;;;;19.73;17.73;;;;;;;11.42;65.34;100438.53;5091296;28;20443;-48
2023/02/05 00:38:30;;;;;;;11.70;8.13;;;;;;;11.37;65.58;100440.84;5091285;28;20112;-48
2023/02/05 00:40:56;;;;;;;15.30;8.60;;;;;;;11.31;65.68;100437.06;5091317;28;20035;-48
2023/02/05 00:43:22;;;;;;;10.75;7.93;;;;;;;11.38;65.42;100432.78;5092316;28;20020;-48
2023/02/05 00:45:47;;;;;;;8.45;6.60;;;;;;;11.67;64.62;100436.78;5094883;28;20422;-48
2023/02/05 00:48:13;;;;;;;12.15;7.68;;;;;;;11.83;63.82;100435.94;5094999;28;20046;-48
2023/02/05 00:50:39;;;;;;;11.85;7.22;;;;;;;11.76;62.99;100435.75;5094986;28;20039;-48
2023/02/05 00:53:05;;;;;;;11.07;7.40;;;;;;;11.63;63.80;100445.13;5094895;28;20487;-48
2023/02/05 00:55:31;;;;;;;14.50;7.20;;;;;;;11.65;64.02;100446.63;5076727;28;20078;-48
2023/02/05 00:57:57;;;;;;;13.25;6.60;;;;;;;11.66;63.46;100465.84;5094803;28;20031;-48
2023/02/05 01:00:23;;;;;;;9.25;6.70;;;;;;;11.63;63.18;100456.50;5094761;28;20103;-48
2023/02/05 01:02:48;;;;;;;9.75;6.80;;;;;;;11.65;63.42;100456.31;5093431;28;20024;-48
2023/02/05 01:05:14;;;;;;;12.93;7.10;;;;;;;11.60;63.07;100464.69;5094516;28;20073;-48
2023/02/05 01:07:40;;;;;;;13.35;6.88;;;;;;;11.55;63.58;100466.97;5093307;28;20024;-47
2023/02/05 01:10:06;;;;;;;8.13;6.32;;;;;;;11.57;63.73;100468.47;5094497;28;20095;-48
2023/02/05 01:12:32;;;;;;;8.73;7.85;;;;;;;11.59;62.68;100471.75;5093197;28;20034;-48
2023/02/05 01:15:02;;;;;;;27.30;9.57;;;;;;;11.60;63.50;100472.59;5094345;28;20420;-48
2023/02/05 01:17:28;;;;;;;17.98;10.40;;;;;;;11.58;62.49;100467.47;5094382;28;20024;-48
2023/02/05 01:19:53;;;;;;;16.80;8.27;;;;;;;11.51;62.59;100478.81;5094377;28;20066;-48
2023/02/05 01:22:20;;;;;;;10.15;7.50;;;;;;;11.46;63.18;100466.16;5094242;28;20403;-47
2023/02/05 01:24:45;;;;;;;9.45;6.03;;;;;;;11.43;62.88;100484.03;5093912;28;20482;-47
2023/02/05 01:27:11;;;;;;;10.23;6.28;;;;;;;11.27;63.27;100467.28;5094275;28;20099;-48
2023/02/05 01:29:37;;;;;;;7.82;6.30;;;;;;;11.21;63.05;100475.81;5094125;28;20035;-48
2023/02/05 01:32:02;;;;;;;7.57;5.70;;;;;;;11.17;64.19;100485.00;5094353;28;20065;-48
2023/02/05 01:34:28;;;;;;;8.20;5.18;;;;;;;11.20;63.51;100474.97;5094133;28;20024;-48
2023/02/05 01:36:53;;;;;;;14.00;5.97;;;;;;;11.50;63.64;100477.16;5075921;28;20393;-48
2023/02/05 01:39:19;;;;;;;8.48;5.35;;;;;;;11.71;62.86;100480.16;5094021;28;20028;-48
2023/02/05 01:41:45;;;;;;;6.88;5.68;;;;;;;11.83;61.50;100485.94;5093923;28;20108;-48
2023/02/05 01:44:21;;;;;;;11.60;6.03;;;;;;;11.69;61.90;100484.78;5093832;28;20028;-48
2023/02/05 01:46:47;;;;;;;5.53;4.88;;;;;;;11.68;61.50;100485.72;5093832;28;20020;-48
2023/02/05 01:49:38;;;;;;;8.05;5.80;;;;;;;11.65;62.60;100485.22;5092512;28;20504;-49
2023/02/05 01:52:16;;;;;;;11.82;5.90;;;;;;;11.76;62.27;100493.63;5093767;28;20093;-48
2023/02/05 01:54:45;;;;;;;9.23;5.97;;;;;;;11.88;62.51;100490.69;5093396;28;20107;-48
2023/02/05 01:57:20;;;;;;;7.95;5.47;;;;;;;11.89;62.06;100492.34;5093611;28;20023;-48
2023/02/05 01:59:47;;;;;;;7.45;5.55;;;;;;;11.93;61.61;100493.66;5092311;28;20061;-48
2023/02/05 02:02:13;;;;;;;11.23;6.60;;;;;;;11.78;61.39;100489.03;5092284;28;20031;-48
2023/02/05 02:04:44;;;;;;;11.55;9.00;;;;;;;11.66;61.92;100482.44;5093453;28;20024;-48
2023/02/05 02:07:15;;;;;;;11.30;7.80;;;;;;;11.68;61.93;100490.19;5092110;28;20016;-48
2023/02/05 02:09:43;;;;;;;30.45;22.58;;;;;;;11.63;62.41;100488.06;5092144;28;20036;-48
2023/02/05 02:12:11;;;;;;;7.07;6.38;;;;;;;11.64;62.38;100481.78;5092059;28;20020;-48
2023/02/05 02:14:41;;;;;;;6.53;5.57;;;;;;;11.60;61.69;100491.81;5093262;28;20073;-48
2023/02/05 02:17:10;;;;;;;8.60;6.20;;;;;;;11.65;62.10;100487.88;5093296;28;20054;-49
2023/02/05 02:19:46;;;;;;;8.30;5.53;;;;;;;11.63;61.38;100481.94;5091908;28;20073;-49
2023/02/05 02:22:53;;;;;;;7.28;5.80;;;;;;;11.63;61.67;100488.06;5093206;28;20443;-49
2023/02/05 02:25:55;;;;;;;10.73;5.78;;;;;;;11.58;62.47;100485.06;5075491;28;20047;-49
2023/02/05 02:28:33;;;;;;;9.80;5.88;;;;;;;11.76;62.01;100474.41;5093128;28;20028;-48
2023/02/05 02:31:16;;;;;;;6.32;5.60;;;;;;;11.92;61.68;100486.78;5092988;28;20039;-49
2023/02/05 02:33:53;;;;;;;10.20;6.40;;;;;;;12.04;61.77;100477.56;5075467;28;20497;-48
2023/02/05 02:36:35;;;;;;;9.30;5.97;;;;;;;11.99;61.47;100482.47;5091658;28;20465;-48
2023/02/05 02:39:25;;;;;;;6.35;5.75;;;;;;;11.93;60.68;100480.50;5092893;28;20016;-48
2023/02/05 02:42:01;;;;;;;12.52;6.15;;;;;;;11.87;61.50;100481.13;5092837;28;20078;-48
2023/02/05 02:44:39;;;;;;;6.75;5.35;;;;;;;11.85;61.40;100470.81;5091428;28;20110;-48
2023/02/05 02:47:12;;;;;;;5.78;5.13;;;;;;;11.87;60.92;100479.34;5092750;28;20106;-49
2023/02/05 02:49:44;;;;;;;8.55;5.50;;;;;;;11.78;60.95;100480.31;5092712;28;20089;-48
2023/02/05 02:52:14;;;;;;;8.00;6.07;;;;;;;11.63;61.31;100469.63;5092868;28;20024;-48
2023/02/05 02:54:42;;;;;;;7.53;5.93;;;;;;;11.59;61.63;100479.66;5091342;28;20031;-49
2023/02/05 02:57:09;;;;;;;8.63;5.78;;;;;;;11.56;61.11;100473.88;5091212;28;20115;-48
2023/02/05 02:59:38;;;;;;;8.35;6.78;;;;;;;11.45;61.23;100476.81;5091129;28;20024;-48
2023/02/05 03:02:08;;;;;;;8.98;5.90;;;;;;;11.44;60.58;100478.63;5092375;28;20046;-48
2023/02/05 03:04:38;;;;;;;10.30;6.15;;;;;;;11.35;60.96;100483.06;5092327;28;20447;-48
2023/02/05 03:07:10;;;;;;;12.18;6.97;;;;;;;11.17;61.73;100477.91;5091687;28;20028;-48
2023/02/05 03:09:48;;;;;;;6.38;5.43;;;;;;;11.27;61.63;100485.69;5092328;28;20020;-48
2023/02/05 03:12:14;;;;;;;8.25;5.43;;;;;;;11.17;61.35;100485.00;5092272;28;20023;-48
2023/02/05 03:14:40;;;;;;;34.72;25.13;;;;;;;11.15;62.06;100485.16;5090896;28;20107;-48
2023/02/05 03:17:06;;;;;;;10.23;6.47;;;;;;;11.20;61.86;100477.59;5092141;28;20486;-48
2023/02/05 03:19:31;;;;;;;7.43;5.82;;;;;;;11.25;61.33;100478.91;5090841;28;20059;-48
2023/02/05 03:22:04;;;;;;;7.07;5.75;;;;;;;11.19;60.98;100490.91;5092084;28;20028;-48
2023/02/05 03:24:30;;;;;;;7.80;6.18;;;;;;;11.10;61.46;100481.34;5091848;28;20094;-49
2023/02/05 03:26:57;;;;;;;8.77;5.82;;;;;;;11.20;62.16;100479.41;5091939;28;20044;-48
2023/02/05 03:29:34;;;;;;;9.25;5.90;;;;;;;11.26;61.91;100483.19;5090739;28;20032;-48
2023/02/05 03:32:29;;;;;;;8.13;6.43;;;;;;;11.20;61.07;100490.72;5090767;28;20040;-48
2023/02/05 03:35:29;;;;;;;7.70;6.03;;;;;;;11.06;62.17;100493.97;5090713;28;20512;-48
2023/02/05 03:38:13;;;;;;;8.10;5.88;;;;;;;11.20;62.18;100492.53;5091993;28;20077;-48
2023/02/05 03:40:54;;;;;;;8.35;5.35;;;;;;;11.33;61.58;100486.84;5091863;28;20043;-48
2023/02/05 03:43:29;;;;;;;6.97;6.28;;;;;;;11.48;61.01;100485.22;5091966;28;20020;-48
2023/02/05 03:46:00;;;;;;;13.75;6.22;;;;;;;11.42;61.19;100485.84;5091789;28;20490;-48
2023/02/05 03:48:39;;;;;;;11.60;5.63;;;;;;;11.39;61.68;100486.19;5090465;28;20032;-48
2023/02/05 03:51:22;;;;;;;7.85;5.53;;;;;;;11.45;61.46;100484.72;5090560;28;20032;-48
2023/02/05 03:54:35;;;;;;;9.60;5.80;;;;;;;11.24;61.37;100491.22;5091810;28;20024;-48
2023/02/05 03:57:04;;;;;;;6.93;5.80;;;;;;;11.23;61.40;100494.00;5046097;28;20044;-48
2023/02/05 03:59:32;;;;;;;7.20;5.68;;;;;;;11.28;60.98;100487.31;5090573;28;20020;-48
2023/02/05 04:01:58;;;;;;;10.32;6.65;;;;;;;11.28;61.12;100489.13;5091657;28;20016;-48
2023/02/05 04:04:24;;;;;;;19.58;17.58;;;;;;;11.36;61.15;100489.13;5091615;28;20074;-48
2023/02/05 04:06:51;;;;;;;422.33;377.10;;;;;;;11.39;61.52;100491.47;5091612;28;20079;-48
2023/02/05 04:09:17;;;;;;;52.00;45.20;;;;;;;11.58;60.99;100493.78;5091640;28;20023;-48
2023/02/05 04:11:43;;;;;;;12.55;10.27;;;;;;;11.68;60.80;100493.63;5090257;28;20493;-48
2023/02/05 04:14:08;;;;;;;15.65;7.32;;;;;;;11.73;60.04;100488.72;5091586;28;20024;-48
2023/02/05 04:16:34;;;;;;;12.15;6.32;;;;;;;11.65;59.49;100496.59;5091574;28;20540;-48
2023/02/05 04:18:59;;;;;;;14.30;8.20;;;;;;;11.53;60.43;100496.09;5093932;28;20032;-48
2023/02/05 04:21:25;;;;;;;16.13;7.20;;;;;;;11.55;60.73;100499.38;5095459;28;20081;-48
2023/02/05 04:23:54;;;;;;;8.15;6.47;;;;;;;11.52;60.17;100497.06;5095158;28;20043;-49
2023/02/05 04:26:19;;;;;;;14.55;6.75;;;;;;;11.36;60.13;100502.28;5094348;28;20058;-48
2023/02/05 04:28:45;;;;;;;17.50;7.20;;;;;;;10.99;60.30;100503.47;5095307;28;20489;-48
2023/02/05 04:31:11;;;;;;;8.07;6.30;;;;;;;10.77;61.44;100499.59;5095343;28;20568;-48
2023/02/05 04:33:38;;;;;;;12.20;6.93;;;;;;;10.79;61.63;100502.91;5095297;28;20397;-48
2023/02/05 04:36:04;;;;;;;10.15;6.82;;;;;;;10.68;61.19;100490.84;5093906;28;20036;-48
2023/02/05 04:38:30;;;;;;;10.02;5.93;;;;;;;10.39;62.00;100501.69;5095392;28;20017;-48
2023/02/05 04:40:56;;;;;;;11.07;6.05;;;;;;;10.27;62.57;100503.69;5095110;28;20088;-48
2023/02/05 04:43:21;;;;;;;10.40;6.55;;;;;;;10.19;62.82;100509.69;5093786;28;20031;-48
2023/02/05 04:45:47;;;;;;;10.63;6.40;;;;;;;10.14;62.94;100500.63;5093720;28;20041;-48
2023/02/05 04:48:13;;;;;;;6.97;5.90;;;;;;;10.15;63.51;100507.53;5093817;28;20020;-48
2023/02/05 04:50:39;;;;;;;7.25;6.30;;;;;;;10.11;62.93;100508.81;5093588;28;20490;-48
2023/02/05 04:53:04;;;;;;;9.90;6.25;;;;;;;10.10;63.09;100500.13;5093598;28;20038;-48
2023/02/05 04:55:30;;;;;;;7.05;6.35;;;;;;;10.02;63.43;100494.84;5093535;28;20036;-48
2023/02/05 04:57:57;;;;;;;8.57;6.40;;;;;;;9.84;63.49;100512.34;5095090;28;20020;-48
2023/02/05 05:00:23;;;;;;;8.20;6.85;;;;;;;9.67;64.78;100506.16;5094752;28;20099;-48
2023/02/05 05:02:49;;;;;;;10.68;6.25;;;;;;;9.91;65.11;100505.53;5076511;28;20042;-48
2023/02/05 05:05:16;;;;;;;16.60;6.93;;;;;;;10.16;64.38;100499.53;5093242;28;20024;-48
2023/02/05 05:07:42;;;;;;;10.80;6.18;;;;;;;10.17;63.77;100506.41;5093291;28;20536;-48
2023/02/05 05:10:08;;;;;;;10.75;6.25;;;;;;;10.23;63.47;100507.59;5093252;28;20064;-48
2023/02/05 05:12:35;;;;;;;9.60;6.40;;;;;;;10.26;63.36;100503.84;5094461;28;20549;-48
2023/02/05 05:15:00;;;;;;;10.15;5.88;;;;;;;10.42;63.22;100508.41;5094453;28;20119;-47
2023/02/05 05:17:26;;;;;;;12.68;6.22;;;;;;;10.55;62.56;100504.41;5094489;28;20099;-48
2023/02/05 05:19:51;;;;;;;8.27;6.30;;;;;;;10.66;62.38;100511.19;5094428;28;20060;-47
2023/02/05 05:22:17;;;;;;;6.93;5.80;;;;;;;10.77;61.85;100499.59;5093012;28;20020;-48
2023/02/05 05:24:43;;;;;;;11.27;6.20;;;;;;;10.77;61.35;100503.03;5094050;28;20040;-48
2023/02/05 05:27:08;;;;;;;12.68;6.68;;;;;;;10.73;61.48;100506.97;5094275;28;20048;-48
2023/02/05 05:29:34;;;;;;;7.50;6.00;;;;;;;10.87;61.83;100497.69;5093532;28;20094;-47
2023/02/05 05:32:00;;;;;;;12.10;6.63;;;;;;;10.95;61.16;100502.97;5094199;28;20027;-48
2023/02/05 05:34:25;;;;;;;8.48;5.50;;;;;;;10.97;60.82;100506.25;5094137;28;20402;-48
2023/02/05 05:36:52;;;;;;;7.78;6.25;;;;;;;10.98;60.66;100507.88;5094058;28;20024;-48
2023/02/05 05:44:51;;;;;;;11.35;9.05;;;;;;;10.87;61.05;100508.19;5094162;28;20066;-48
2023/02/05 05:47:18;;;;;;;8.85;6.93;;;;;;;10.85;60.02;100507.53;5093907;28;20036;-47
2023/02/05 05:49:43;;;;;;;9.30;5.75;;;;;;;10.69;60.80;100510.88;5093816;28;20095;-47
2023/02/05 05:52:09;;;;;;;7.40;6.07;;;;;;;10.68;61.19;100511.03;5093816;28;20099;-48
2023/02/05 05:54:35;;;;;;;9.88;6.55;;;;;;;10.61;61.37;100510.84;5093758;28;20481;-48
2023/02/05 05:57:01;;;;;;;11.35;7.50;;;;;;;10.55;61.42;100512.28;5093648;28;20028;-48
2023/02/05 05:59:26;;;;;;;7.43;6.20;;;;;;;10.52;60.86;100512.59;5092304;28;20536;-48
2023/02/05 06:01:52;;;;;;;10.38;6.60;;;;;;;10.39;61.29;100505.13;5093576;28;20016;-48
2023/02/05 06:04:17;;;;;;;10.88;6.88;;;;;;;10.31;60.92;100502.44;5093679;28;20098;-47
2023/02/05 06:06:43;;;;;;;10.02;7.10;;;;;;;10.12;61.32;100507.84;5092180;28;20493;-48
2023/02/05 06:09:09;;;;;;;9.63;6.70;;;;;;;10.05;62.37;100502.38;5093727;28;20024;-48
2023/02/05 06:11:35;;;;;;;9.82;7.70;;;;;;;10.12;61.94;100502.59;5093315;28;20374;-47
2023/02/05 06:14:00;;;;;;;10.73;7.45;;;;;;;9.98;62.04;100510.03;5093340;28;20032;-48
2023/02/05 06:16:26;;;;;;;12.23;7.18;;;;;;;9.97;62.33;100512.81;5093321;28;20129;-48
2023/02/05 06:18:53;;;;;;;9.00;6.68;;;;;;;9.97;62.00;100516.25;5093173;28;20027;-48
2023/02/05 06:21:19;;;;;;;11.80;6.97;;;;;;;9.89;62.04;100523.22;5091952;28;20185;-47
2023/02/05 06:23:44;;;;;;;9.23;7.25;;;;;;;9.83;62.15;100522.03;5091591;28;20074;-48
2023/02/05 06:26:10;;;;;;;10.10;7.25;;;;;;;9.68;62.44;100511.25;5093094;28;20032;-47
2023/02/05 06:28:35;;;;;;;13.88;7.45;;;;;;;9.56;62.85;100525.56;5093049;28;20477;-47
2023/02/05 06:31:01;;;;;;;10.63;7.10;;;;;;;9.40;62.94;100532.25;5091628;28;20028;-48
2023/02/05 06:33:26;;;;;;;13.85;7.30;;;;;;;9.26;63.66;100526.69;5091686;28;20024;-47
2023/02/05 06:35:52;;;;;;;8.63;6.63;;;;;;;9.23;63.99;100538.28;5093128;28;20390;-47
2023/02/05 06:38:18;;;;;;;10.00;6.65;;;;;;;9.18;63.99;100545.75;5092893;28;20107;-48
2023/02/05 06:40:43;;;;;;;9.10;6.60;;;;;;;9.13;63.79;100547.97;5091867;28;20024;-48
2023/02/05 06:43:09;;;;;;;7.10;6.35;;;;;;;9.05;63.25;100546.06;5092855;28;20020;-48
2023/02/05 06:45:34;;;;;;;10.93;6.32;;;;;;;8.90;63.21;100552.75;5091282;28;20485;-48
2023/02/05 06:48:00;;;;;;;12.98;7.30;;;;;;;8.80;63.69;100563.25;5092758;28;20020;-48
2023/02/05 06:50:26;;;;;;;17.45;6.97;;;;;;;8.80;64.29;100564.09;5092610;28;20020;-48
2023/02/05 06:52:51;;;;;;;14.18;6.82;;;;;;;8.80;64.05;100573.72;5091429;28;20020;-47
2023/02/05 06:55:17;;;;;;;9.63;6.55;;;;;;;8.85;64.32;100566.25;5092584;28;20028;-48
2023/02/05 06:57:43;;;;;;;12.23;7.13;;;;;;;8.89;64.21;100566.81;5092525;28;20054;-48
2023/02/05 07:00:10;;;;;;;8.88;6.57;;;;;;;8.80;63.94;100569.31;5092529;28;20401;-48
2023/02/05 07:02:35;;;;;;;9.88;7.00;;;;;;;8.60;63.67;100570.34;5092365;28;20102;-48
2023/02/05 07:05:01;;;;;;;18.48;7.97;;;;;;;8.30;63.51;100579.16;5092329;28;20099;-48
2023/02/05 07:07:27;;;;;;;13.20;8.32;;;;;;;8.02;65.13;100583.41;5092334;28;20052;-48
2023/02/05 07:09:53;;;;;;;10.73;8.70;;;;;;;7.95;65.94;100585.75;5092310;28;20082;-48
2023/02/05 07:12:19;;;;;;;10.18;7.85;;;;;;;7.98;66.75;100586.28;5092296;28;20027;-48
2023/02/05 07:14:45;;;;;;;10.82;7.65;;;;;;;7.95;66.52;100599.66;5092275;28;20059;-48
2023/02/05 07:17:10;;;;;;;9.30;7.57;;;;;;;7.99;66.84;100600.22;5092459;28;20409;-48
2023/02/05 07:19:36;;;;;;;12.50;7.97;;;;;;;8.04;66.30;100602.41;5092424;28;20481;-48
2023/02/05 07:22:03;;;;;;;8.88;7.85;;;;;;;8.15;66.41;100615.38;5092219;28;20020;-48
2023/02/05 07:24:28;;;;;;;9.98;7.75;;;;;;;8.29;65.92;100619.34;5091867;28;20062;-47
2023/02/05 07:26:54;;;;;;;12.77;8.32;;;;;;;8.49;65.47;100615.81;5092055;28;20497;-48
2023/02/05 07:29:20;;;;;;;10.68;7.97;;;;;;;8.83;65.40;100615.31;5090779;28;20070;-48
2023/02/05 07:31:47;;;;;;;9.90;8.25;;;;;;;9.34;63.57;100619.31;5090800;28;20445;-48
2023/02/05 07:34:13;;;;;;;10.90;7.25;;;;;;;10.27;62.08;100624.41;5090689;28;20489;-48
2023/02/05 07:36:38;;;;;;;8.75;7.10;;;;;;;11.15;59.33;100620.97;5091992;28;20031;-48
2023/02/05 07:39:04;;;;;;;8.80;7.13;;;;;;;11.84;57.71;100621.72;5091980;28;20174;-48
2023/02/05 07:41:29;;;;;;;10.43;7.10;;;;;;;12.38;56.09;100618.72;5092121;28;20020;-48
2023/02/05 07:43:55;;;;;;;10.35;7.25;;;;;;;12.19;55.59;100623.31;5091819;28;20055;-48
2023/02/05 07:46:21;;;;;;;11.80;7.30;;;;;;;11.75;56.02;100625.31;5091806;28;20024;-47
2023/02/05 07:48:47;;;;;;;9.65;7.60;;;;;;;11.93;56.06;100627.84;5091790;28;20012;-48
2023/02/05 07:51:21;;;;;;;10.13;7.00;;;;;;;12.78;54.60;100624.97;5092103;28;20055;-48
2023/02/05 07:53:47;;;;;;;7.53;6.55;;;;;;;13.76;52.11;100619.38;5095434;28;20164;-48
2023/02/05 07:56:14;;;;;;;9.15;7.18;;;;;;;14.56;49.19;100617.38;5096012;28;20040;-48
2023/02/05 07:58:40;;;;;;;7.63;6.90;;;;;;;14.93;47.45;100615.69;5094625;28;20081;-48
2023/02/05 08:01:05;;;;;;;9.60;7.00;;;;;;;15.14;46.78;100621.06;5096134;28;20103;-48
2023/02/05 08:03:31;;;;;;;8.25;7.05;;;;;;;15.48;45.53;100610.94;5094559;28;20034;-49
2023/02/05 08:05:57;;;;;;;7.07;6.35;;;;;;;15.86;45.02;100610.81;5094385;28;20030;-48
2023/02/05 08:08:23;;;;;;;8.20;6.47;;;;;;;16.47;44.66;100605.84;5094405;28;20116;-47
2023/02/05 08:11:02;;;;;;;8.98;6.50;;;;;;;17.04;43.84;100590.78;5094358;28;20405;-46
2023/02/05 08:13:28;;;;;;;7.82;5.90;;;;;;;17.44;42.07;100601.56;5095717;28;20105;-46
2023/02/05 08:15:54;;;;;;;7.50;6.15;;;;;;;17.81;41.46;100596.81;5094288;28;20055;-46
2023/02/05 08:18:19;;;;;;;8.55;6.55;;;;;;;18.19;40.87;100601.63;5095499;28;20020;-46
2023/02/05 08:20:45;;;;;;;11.15;6.60;;;;;;;17.82;39.57;100608.25;5094231;28;20027;-46
2023/02/05 08:23:11;;;;;;;8.20;6.00;;;;;;;17.08;41.21;100599.16;5095518;28;20103;-47
2023/02/05 08:25:39;;;;;;;9.35;6.80;;;;;;;17.17;41.85;100603.31;5093815;28;20048;-46
2023/02/05 08:28:05;;;;;;;8.00;6.22;;;;;;;17.32;40.55;100603.16;5095425;28;20065;-47
2023/02/05 08:30:31;;;;;;;8.02;5.95;;;;;;;17.19;39.76;100605.78;5094012;28;20036;-47
2023/02/05 08:32:56;;;;;;;7.68;6.50;;;;;;;17.29;40.25;100596.41;5095271;28;20016;-46
2023/02/05 08:35:22;;;;;;;16.65;6.70;;;;;;;17.64;39.95;100609.63;5095286;28;20020;-46
2023/02/05 08:37:47;;;;;;;8.65;5.28;;;;;;;18.01;38.90;100599.53;5093913;28;20024;-46
2023/02/05 08:40:13;;;;;;;9.65;5.90;;;;;;;18.33;38.12;100602.41;5095118;28;20020;-46
2023/02/05 08:42:39;;;;;;;8.18;5.50;;;;;;;18.63;36.96;100599.34;5093835;28;20508;-46
2023/02/05 08:45:07;;;;;;;8.63;5.53;;;;;;;18.36;37.03;100610.00;5094991;28;20051;-46
2023/02/05 08:47:36;;;;;;;7.25;5.93;;;;;;;17.40;38.23;100608.31;5094991;28;20412;-46
2023/02/05 08:50:05;;;;;;;6.95;5.95;;;;;;;16.55;39.75;100626.13;5095195;28;20622;-46
2023/02/05 08:52:31;;;;;;;8.18;5.65;;;;;;;15.82;40.73;100620.13;5094891;28;20135;-46
2023/02/05 08:54:57;;;;;;;8.93;5.85;;;;;;;15.11;42.05;100626.75;5076720;28;20464;-46
2023/02/05 08:57:29;;;;;;;10.25;6.30;;;;;;;14.72;43.23;100629.59;5094818;28;20024;-46
2023/02/05 08:59:55;;;;;;;9.32;6.25;;;;;;;14.36;43.58;100624.91;5094919;28;20164;-46
2023/02/05 09:02:21;;;;;;;9.10;6.10;;;;;;;14.19;44.55;100626.88;5094761;28;20024;-46
2023/02/05 09:04:47;;;;;;;8.55;6.50;;;;;;;14.24;44.12;100636.91;5092301;28;20482;-46
2023/02/05 09:07:13;;;;;;;8.98;6.22;;;;;;;14.03;44.99;100630.44;5094574;28;20031;-46
2023/02/05 09:09:39;;;;;;;9.85;6.53;;;;;;;14.00;45.20;100636.06;5094642;28;20035;-48
2023/02/05 09:12:05;;;;;;;7.80;6.32;;;;;;;13.69;45.40;100630.81;5093192;28;20024;-48
2023/02/05 09:14:36;;;;;;;18.00;6.95;;;;;;;13.46;45.76;100636.00;5094507;28;20032;-48
2023/02/05 09:17:07;;;;;;;8.40;6.45;;;;;;;13.12;47.00;100635.25;5094505;28;20031;-48
2023/02/05 09:19:37;;;;;;;6.50;5.82;;;;;;;12.89;47.61;100640.41;5094479;28;20095;-48
2023/02/05 09:22:04;;;;;;;12.45;6.50;;;;;;;13.02;48.12;100652.25;5094334;28;20047;-48
2023/02/05 09:24:30;;;;;;;8.35;5.72;;;;;;;13.12;46.95;100644.97;5092699;28;20043;-48
2023/02/05 09:26:55;;;;;;;9.10;5.80;;;;;;;12.94;46.66;100643.38;5092952;28;20028;-48
2023/02/05 09:29:21;;;;;;;11.68;5.72;;;;;;;13.02;46.74;100647.81;5094171;28;20036;-48
2023/02/05 09:31:47;;;;;;;6.75;4.97;;;;;;;13.25;46.79;100649.72;5094211;28;20024;-48
2023/02/05 09:34:13;;;;;;;9.25;5.43;;;;;;;13.38;45.98;100650.03;5094052;28;20016;-48
2023/02/05 09:36:39;;;;;;;16.27;6.85;;;;;;;13.55;45.85;100646.34;5094050;28;20028;-48
2023/02/05 09:39:06;;;;;;;11.73;5.63;;;;;;;13.78;45.22;100637.66;5092714;28;20033;-48
2023/02/05 09:41:41;;;;;;;17.88;6.65;;;;;;;13.64;45.39;100627.84;5093969;28;20028;-48
2023/02/05 09:44:10;;;;;;;14.25;6.38;;;;;;;13.41;46.18;100636.53;5093873;28;20402;-48
2023/02/05 09:47:07;;;;;;;12.63;6.88;;;;;;;13.50;46.86;100638.16;5092525;28;20152;-48
2023/02/05 09:49:56;;;;;;;15.20;7.03;;;;;;;15.48;45.05;100638.22;5092541;28;20439;-48
2023/02/05 09:52:37;;;;;;;9.18;6.20;;;;;;;16.42;42.00;100637.44;5094060;28;20110;-48
2023/02/05 09:55:25;;;;;;;17.98;8.55;;;;;;;16.01;41.42;100643.34;5093715;28;20078;-48
2023/02/05 09:57:55;;;;;;;10.93;6.28;;;;;;;15.13;41.59;100637.97;5093708;28;20049;-48
2023/02/05 10:00:36;;;;;;;9.60;7.28;;;;;;;13.91;43.56;100637.13;5092297;28;20053;-48
2023/02/05 10:03:19;;;;;;;11.77;7.90;;;;;;;13.24;44.70;100646.28;5093652;28;20028;-48
2023/02/05 10:05:51;;;;;;;11.13;6.47;;;;;;;14.45;44.68;100629.16;5093507;28;20016;-48
2023/02/05 10:08:34;;;;;;;9.93;6.20;;;;;;;16.61;42.66;100629.84;5093489;28;20139;-49
2023/02/05 10:11:02;;;;;;;12.98;5.30;;;;;;;18.55;38.99;100611.84;5092097;28;20024;-47
2023/02/05 10:13:38;;;;;;;8.80;6.07;;;;;;;20.29;36.37;100600.56;5075445;28;20035;-47
2023/02/05 10:16:10;;;;;;;9.00;4.88;;;;;;;20.62;34.47;100588.81;5093048;28;20032;-47
2023/02/05 10:19:00;;;;;;;15.93;5.47;;;;;;;19.92;35.00;100598.56;5091983;28;20024;-47
2023/02/05 10:21:38;;;;;;;7.28;4.72;;;;;;;20.28;34.03;100598.91;5093238;28;20031;-47
2023/02/05 10:24:06;;;;;;;7.43;5.38;;;;;;;21.43;33.28;100589.59;5091565;28;20178;-47
2023/02/05 10:26:56;;;;;;;10.32;5.35;;;;;;;21.60;32.36;100598.63;5091824;28;20115;-47
2023/02/05 10:29:35;;;;;;;7.78;5.13;;;;;;;20.84;31.90;100595.34;5093150;28;20393;-46
2023/02/05 10:32:23;;;;;;;9.05;4.65;;;;;;;20.31;33.24;100606.47;5091793;28;20028;-46
2023/02/05 10:34:56;;;;;;;7.63;4.22;;;;;;;20.08;32.62;100601.72;5093279;28;20020;-46
2023/02/05 10:37:46;;;;;;;10.27;4.95;;;;;;;19.81;33.84;100591.22;5091615;28;20063;-46
2023/02/05 10:40:14;;;;;;;5.72;4.40;;;;;;;19.97;33.53;100591.75;5091636;28;20032;-46
2023/02/05 10:43:01;;;;;;;9.43;4.90;;;;;;;20.00;33.29;100585.97;5092825;28;20128;-46
2023/02/05 10:45:28;;;;;;;4.80;3.00;;;;;;;19.56;32.43;100560.00;5092982;28;20458;-46
2023/02/05 10:48:09;;;;;;;5.15;3.08;;;;;;;18.63;33.50;100575.41;5092709;28;20020;-46
2023/02/05 10:50:50;;;;;;;8.25;3.28;;;;;;;17.81;35.10;100558.78;5091389;28;20036;-46
2023/02/05 10:53:20;;;;;;;8.55;3.10;;;;;;;18.33;35.03;100559.88;5092705;28;20028;-46
2023/02/05 10:55:46;;;;;;;7.68;3.30;;;;;;;19.13;34.23;100555.25;5074806;28;20128;-46
2023/02/05 10:58:52;;;;;;;7.93;3.50;;;;;;;19.16;34.11;100546.88;5091222;28;20020;-46
2023/02/05 11:01:21;;;;;;;12.77;4.28;;;;;;;19.18;34.19;100545.84;5090012;28;20131;-47
2023/02/05 11:03:51;;;;;;;10.23;4.10;;;;;;;18.98;34.01;100537.94;5092461;28;20027;-46
2023/02/05 11:06:19;;;;;;;11.23;4.43;;;;;;;19.05;34.09;100538.72;5092338;28;20109;-46
2023/02/05 11:08:44;;;;;;;9.52;3.30;;;;;;;19.30;33.52;100538.84;5091078;28;20122;-46
2023/02/05 11:11:40;;;;;;;6.78;3.20;;;;;;;19.59;33.04;100533.97;5090948;28;20048;-46
2023/02/05 11:14:06;;;;;;;8.88;3.58;;;;;;;19.12;32.72;100532.34;5078935;28;20058;-46
2023/02/05 11:16:41;;;;;;;7.43;3.20;;;;;;;18.33;34.26;100526.16;5091035;28;20032;-46
2023/02/05 11:19:20;;;;;;;;;;;;;;;18.07;35.12;100523.50;5092959;28;20035;-46
2023/02/05 11:22:04;;;;;;;13.32;4.22;;;;;;;17.89;35.29;100509.00;5092191;28;19939;-46
2023/02/05 11:24:35;;;;;;;11.77;3.95;;;;;;;17.76;35.74;100503.63;5091875;28;20068;-45
2023/02/05 11:27:25;;;;;;;9.18;3.83;;;;;;;17.22;35.83;100489.41;5090228;28;20043;-45
2023/02/05 11:29:52;;;;;;;9.70;3.35;;;;;;;16.52;36.80;100518.66;5090762;28;20016;-46
2023/02/05 11:32:31;;;;;;;13.38;3.55;;;;;;;16.06;37.76;100513.81;5073891;28;20401;-45
2023/02/05 11:35:21;;;;;;;7.45;2.85;;;;;;;15.65;38.51;100513.59;5092295;28;20020;-46
2023/02/05 11:37:57;;;;;;;9.40;3.42;;;;;;;15.36;39.12;100513.50;5092297;28;20062;-45
2023/02/05 11:40:31;;;;;;;9.30;3.05;;;;;;;15.13;39.61;100515.47;5091927;28;20032;-45